createdAt,value
2018-07-23T00:01:50.209Z,101135.45
2018-07-23T00:04:18.375Z,101135.44
2018-07-23T00:06:46.547Z,101134.96
2018-07-23T00:09:14.656Z,101136.39
2018-07-23T00:11:42.854Z,101136.03
2018-07-23T00:14:11.059Z,101138.78
2018-07-23T00:16:39.198Z,101140.24
2018-07-23T00:19:07.276Z,101135.55
2018-07-23T00:21:35.417Z,101133.56
2018-07-23T00:24:03.500Z,101129.45
2018-07-23T00:26:31.628Z,101130.14
2018-07-23T00:28:59.817Z,101128.23
2018-07-23T00:31:27.998Z,101128.72
2018-07-23T00:33:56.172Z,101130.41
2018-07-23T00:36:24.339Z,101128.24
2018-07-23T00:38:52.468Z,101130.78
2018-07-23T00:41:20.573Z,101131.67
2018-07-23T00:43:48.680Z,101134.20
2018-07-23T00:46:16.765Z,101130.50
2018-07-23T00:48:44.868Z,101144.54
2018-07-23T00:51:12.948Z,101137.27
2018-07-23T00:53:41.041Z,101134.30
2018-07-23T00:56:09.121Z,101136.00
2018-07-23T00:58:37.200Z,101139.73
2018-07-23T01:01:05.320Z,101134.56
2018-07-23T01:03:33.419Z,101132.67
2018-07-23T01:06:01.516Z,101131.00
2018-07-23T01:08:29.646Z,101134.20
2018-07-23T01:10:57.759Z,101131.73
2018-07-23T01:13:25.867Z,101127.34
2018-07-23T01:15:53.964Z,101129.45
2018-07-23T01:18:22.090Z,101129.77
2018-07-23T01:20:50.159Z,101130.83
2018-07-23T01:23:18.296Z,101131.98
2018-07-23T01:25:46.436Z,101132.58
2018-07-23T01:28:14.498Z,101132.69
2018-07-23T01:30:42.573Z,101135.80
2018-07-23T01:33:11.851Z,101138.58
2018-07-23T01:35:39.957Z,101136.52
2018-07-23T01:38:08.016Z,101136.73
2018-07-23T01:40:36.108Z,101141.48
2018-07-23T01:43:04.192Z,101142.48
2018-07-23T01:45:32.325Z,101140.84
2018-07-23T01:48:00.439Z,101136.75
2018-07-23T01:50:28.544Z,101140.70
2018-07-23T01:52:56.666Z,101137.58
2018-07-23T01:55:24.824Z,101143.54
2018-07-23T01:57:52.911Z,101140.00
2018-07-23T02:00:21.003Z,101142.36
2018-07-23T02:02:49.119Z,101156.87
2018-07-23T02:05:17.189Z,101155.08
2018-07-23T02:07:45.329Z,101152.17
2018-07-23T02:10:13.416Z,101154.17
2018-07-23T02:12:41.516Z,101155.77
2018-07-23T02:15:09.589Z,101156.60
2018-07-23T02:17:37.695Z,101156.70
2018-07-23T02:20:05.922Z,101162.83
2018-07-23T02:22:34.040Z,101160.13
2018-07-23T02:25:02.157Z,101155.81
2018-07-23T02:27:30.260Z,101161.77
2018-07-23T02:29:58.341Z,101166.53
2018-07-23T02:32:26.470Z,101169.11
2018-07-23T02:34:54.641Z,101170.38
2018-07-23T02:37:22.781Z,101168.95
2018-07-23T02:39:50.900Z,101167.84
2018-07-23T02:42:19.006Z,101158.23
2018-07-23T02:44:47.064Z,101166.11
2018-07-23T02:47:15.176Z,101169.19
2018-07-23T02:49:43.266Z,101174.03
2018-07-23T02:52:11.388Z,101173.86
2018-07-23T02:54:39.511Z,101174.80
2018-07-23T02:57:07.671Z,101174.80
2018-07-23T02:59:35.833Z,101174.70
2018-07-23T03:02:03.898Z,101175.08
2018-07-23T03:04:31.984Z,101174.23
2018-07-23T03:07:00.095Z,101174.59
2018-07-23T03:09:28.208Z,101173.39
2018-07-23T03:11:56.305Z,101164.43
2018-07-23T03:14:24.395Z,101173.39
2018-07-23T03:16:52.504Z,101173.76
2018-07-23T03:19:21.326Z,101177.88
2018-07-23T03:21:49.544Z,101172.41
2018-07-23T03:24:17.620Z,101181.63
2018-07-23T03:26:45.720Z,101173.72
2018-07-23T03:29:13.872Z,101174.86
2018-07-23T03:31:41.989Z,101179.67
2018-07-23T03:34:10.100Z,101183.05
2018-07-23T03:36:38.211Z,101183.75
2018-07-23T03:39:08.139Z,101189.87
2018-07-23T03:41:36.298Z,101183.55
2018-07-23T03:44:04.432Z,101185.14
2018-07-23T03:46:32.558Z,101188.04
2018-07-23T03:49:00.704Z,101189.42
2018-07-23T03:51:28.921Z,101194.12
2018-07-23T03:53:57.072Z,101194.25
2018-07-23T03:56:25.238Z,101195.36
2018-07-23T03:58:53.373Z,101203.07
2018-07-23T04:01:21.515Z,101199.91
2018-07-23T04:03:49.636Z,101200.13
2018-07-23T04:06:17.804Z,101199.91
2018-07-23T04:08:45.930Z,101205.01
2018-07-23T04:11:14.033Z,101204.01
2018-07-23T04:13:42.193Z,101205.06
2018-07-23T04:16:10.317Z,101208.25
2018-07-23T04:18:38.458Z,101215.01
2018-07-23T04:21:06.642Z,101211.79
2018-07-23T04:23:34.780Z,101213.44
2018-07-23T04:26:02.940Z,101213.23
2018-07-23T04:28:31.115Z,101206.83
2018-07-23T04:30:59.292Z,101217.03
2018-07-23T04:33:27.428Z,101215.70
2018-07-23T04:35:55.564Z,101213.80
2018-07-23T04:38:23.692Z,101214.55
2018-07-23T04:40:51.807Z,101223.74
2018-07-23T04:43:19.931Z,101212.96
2018-07-23T04:45:48.052Z,101214.13
2018-07-23T04:48:16.151Z,101219.05
2018-07-23T04:50:44.343Z,101221.88
2018-07-23T04:53:12.417Z,101220.15
2018-07-23T04:55:40.543Z,101217.75
2018-07-23T04:58:08.683Z,101222.11
2018-07-23T05:00:36.850Z,101218.49
2018-07-23T05:03:04.973Z,101227.97
2018-07-23T05:05:33.116Z,101230.84
2018-07-23T05:08:01.246Z,101229.07
2018-07-23T05:10:29.426Z,101228.31
2018-07-23T05:12:57.484Z,101230.80
2018-07-23T05:15:25.585Z,101232.36
2018-07-23T05:17:53.765Z,101233.54
2018-07-23T05:20:21.852Z,101244.00
2018-07-23T05:22:50.032Z,101242.21
2018-07-23T05:25:18.172Z,101244.94
2018-07-23T05:27:46.282Z,101246.96
2018-07-23T05:30:14.366Z,101233.86
2018-07-23T05:32:42.455Z,101243.80
2018-07-23T05:35:10.605Z,101241.62
2018-07-23T05:37:38.732Z,101245.73
2018-07-23T05:40:06.992Z,101245.27
2018-07-23T05:42:35.127Z,101245.16
2018-07-23T05:45:03.244Z,101252.13
2018-07-23T05:47:31.357Z,101253.59
2018-07-23T05:50:00.204Z,101253.28
2018-07-23T05:52:28.280Z,101251.44
2018-07-23T05:54:56.433Z,101248.25
2018-07-23T05:57:24.565Z,101250.41
2018-07-23T05:59:52.691Z,101248.69
2018-07-23T06:02:20.789Z,101250.30
2018-07-23T06:04:49.073Z,101255.28
2018-07-23T06:07:17.146Z,101252.34
2018-07-23T06:09:45.257Z,101252.53
2018-07-23T06:12:13.364Z,101244.06
2018-07-23T06:14:41.510Z,101252.91
2018-07-23T06:17:09.717Z,101255.05
2018-07-23T06:19:37.799Z,101257.52
2018-07-23T06:22:05.910Z,101263.00
2018-07-23T06:24:34.012Z,101262.09
2018-07-23T06:27:02.134Z,101263.94
2018-07-23T06:29:30.220Z,101260.86
2018-07-23T06:31:58.431Z,101266.14
2018-07-23T06:34:26.513Z,101268.06
2018-07-23T06:36:54.592Z,101274.63
2018-07-23T06:39:22.679Z,101274.20
2018-07-23T06:41:50.807Z,101270.92
2018-07-23T06:44:18.873Z,101272.40
2018-07-23T06:46:46.937Z,101261.67
2018-07-23T06:49:15.026Z,101267.27
2018-07-23T06:51:43.153Z,101267.54
2018-07-23T06:54:11.358Z,101272.09
2018-07-23T06:56:39.498Z,101268.45
2018-07-23T06:59:07.571Z,101270.92
2018-07-23T07:01:35.696Z,101269.41
2018-07-23T07:04:03.780Z,101262.02
2018-07-23T07:06:31.887Z,101267.20
2018-07-23T07:08:59.992Z,101265.58
2018-07-23T07:11:28.171Z,101263.96
2018-07-23T07:13:56.260Z,101264.28
2018-07-23T07:16:24.750Z,101264.58
2018-07-23T07:18:52.858Z,101264.49
2018-07-23T07:21:20.953Z,101266.99
2018-07-23T07:23:49.110Z,101269.02
2018-07-23T07:26:17.208Z,101263.25
2018-07-23T07:28:45.332Z,101275.69
2018-07-23T07:31:13.432Z,101268.55
2018-07-23T07:33:41.529Z,101271.16
2018-07-23T07:36:09.634Z,101270.95
2018-07-23T07:38:37.737Z,101269.55
2018-07-23T07:41:06.247Z,101272.50
2018-07-23T07:43:34.360Z,101270.58
2018-07-23T07:46:02.458Z,101271.45
2018-07-23T07:48:30.620Z,101272.17
2018-07-23T07:50:58.733Z,101271.64
2018-07-23T07:53:26.902Z,101271.02
2018-07-23T07:55:55.081Z,101273.28
2018-07-23T07:58:23.251Z,101275.19
2018-07-23T08:00:51.454Z,101271.44
2018-07-23T08:03:19.634Z,101267.75
2018-07-23T08:05:47.735Z,101270.06
2018-07-23T08:08:15.804Z,101270.66
2018-07-23T08:10:43.869Z,101265.62
2018-07-23T08:13:12.124Z,101257.26
2018-07-23T08:15:40.220Z,101268.30
2018-07-23T08:18:08.351Z,101268.70
2018-07-23T08:20:43.180Z,101273.32
2018-07-23T08:23:11.307Z,101264.76
2018-07-23T08:25:39.388Z,101269.41
2018-07-23T08:28:07.781Z,101269.64
2018-07-23T08:30:35.909Z,101265.82
2018-07-23T08:33:04.088Z,101272.91
2018-07-23T08:35:32.447Z,101271.02
2018-07-23T08:38:00.685Z,101269.89
2018-07-23T08:40:29.013Z,101280.16
2018-07-23T08:42:57.124Z,101277.97
2018-07-23T08:45:25.262Z,101279.81
2018-07-23T08:47:53.368Z,101280.37
2018-07-23T08:50:21.443Z,101281.77
2018-07-23T08:52:49.539Z,101278.32
2018-07-23T08:55:17.639Z,101276.63
2018-07-23T08:57:45.745Z,101271.85
2018-07-23T09:00:13.888Z,101270.63
2018-07-23T09:02:41.963Z,101267.66
2018-07-23T09:05:10.113Z,101274.16
2018-07-23T09:07:38.195Z,101270.98
2018-07-23T09:10:06.416Z,101271.53
2018-07-23T09:12:34.507Z,101269.80
2018-07-23T09:15:02.614Z,101272.40
2018-07-23T09:17:30.691Z,101270.95
2018-07-23T09:19:58.806Z,101270.98
2018-07-23T09:22:27.035Z,101273.52
2018-07-23T09:24:55.226Z,101275.23
2018-07-23T09:27:23.391Z,101273.17
2018-07-23T09:29:51.494Z,101276.32
2018-07-23T09:32:19.590Z,101272.84
2018-07-23T09:34:47.748Z,101274.89
2018-07-23T09:37:15.869Z,101273.83
2018-07-23T09:39:43.974Z,101272.52
2018-07-23T09:42:12.074Z,101268.40
2018-07-23T09:44:40.178Z,101277.78
2018-07-23T09:47:08.301Z,101256.16
2018-07-23T09:49:36.451Z,101262.78
2018-07-23T09:52:04.536Z,101264.61
2018-07-23T09:54:32.626Z,101261.70
2018-07-23T09:57:00.714Z,101262.55
2018-07-23T09:59:28.785Z,101263.58
2018-07-23T10:01:56.881Z,101256.80
2018-07-23T10:04:24.990Z,101266.01
2018-07-23T10:06:53.112Z,101257.58
2018-07-23T10:09:21.195Z,101255.68
2018-07-23T10:11:49.265Z,101259.66
2018-07-23T10:14:17.349Z,101255.16
2018-07-23T10:16:45.426Z,101255.01
2018-07-23T10:19:13.507Z,101254.72
2018-07-23T10:21:41.581Z,101254.75
2018-07-23T10:24:09.675Z,101251.31
2018-07-23T10:26:37.753Z,101252.81
2018-07-23T10:29:05.841Z,101251.80
2018-07-23T10:31:33.910Z,101244.88
2018-07-23T10:34:02.000Z,101245.52
2018-07-23T10:36:30.061Z,101251.31
2018-07-23T10:38:58.202Z,101244.17
2018-07-23T10:41:26.265Z,101251.78
2018-07-23T10:43:54.349Z,101245.68
2018-07-23T10:46:22.514Z,101243.20
2018-07-23T10:48:50.682Z,101244.20
2018-07-23T10:51:18.771Z,101242.85
2018-07-23T10:53:46.873Z,101244.13
2018-07-23T10:56:14.966Z,101240.53
2018-07-23T10:58:43.048Z,101235.59
2018-07-23T11:01:11.111Z,101239.16
2018-07-23T11:03:39.228Z,101241.27
2018-07-23T11:06:07.323Z,101245.08
2018-07-23T11:08:36.046Z,101240.72
2018-07-23T11:11:04.163Z,101242.19
2018-07-23T11:13:32.290Z,101241.05
2018-07-23T11:16:00.376Z,101246.75
2018-07-23T11:18:28.490Z,101243.41
2018-07-23T11:20:56.614Z,101244.39
2018-07-23T11:23:24.715Z,101243.17
2018-07-23T11:25:52.814Z,101249.91
2018-07-23T11:28:20.919Z,101251.47
2018-07-23T11:30:49.035Z,101249.43
2018-07-23T11:33:17.125Z,101254.78
2018-07-23T11:35:45.239Z,101254.48
2018-07-23T11:38:13.320Z,101251.16
2018-07-23T11:40:41.426Z,101256.27
2018-07-23T11:43:09.751Z,101250.83
2018-07-23T11:45:37.866Z,101255.95
2018-07-23T11:48:05.964Z,101256.73
2018-07-23T11:50:34.013Z,101255.00
2018-07-23T11:53:02.092Z,101243.14
2018-07-23T11:55:30.204Z,101254.97
2018-07-23T11:57:58.332Z,101256.82
2018-07-23T12:00:26.420Z,101248.36
2018-07-23T12:02:54.503Z,101243.86
2018-07-23T12:05:22.691Z,101242.48
2018-07-23T12:07:50.761Z,101250.87
2018-07-23T12:10:18.850Z,101247.23
2018-07-23T12:12:46.942Z,101246.94
2018-07-23T12:15:15.076Z,101243.03
2018-07-23T12:17:43.199Z,101243.04
2018-07-23T12:20:11.302Z,101244.14
2018-07-23T12:22:39.399Z,101242.11
2018-07-23T12:25:07.491Z,101242.61
2018-07-23T12:27:35.588Z,101249.81
2018-07-23T12:30:03.700Z,101248.16
2018-07-23T12:32:32.272Z,101243.81
2018-07-23T12:35:00.352Z,101238.73
2018-07-23T12:37:28.482Z,101240.44
2018-07-23T12:39:56.660Z,101233.90
2018-07-23T12:42:24.733Z,101241.41
2018-07-23T12:44:52.817Z,101249.63
2018-07-23T12:47:20.948Z,101239.25
2018-07-23T12:49:49.024Z,101245.44
2018-07-23T12:52:17.095Z,101235.14
2018-07-23T12:54:45.258Z,101232.51
2018-07-23T12:57:13.379Z,101241.22
2018-07-23T12:59:41.505Z,101241.55
2018-07-23T13:02:09.646Z,101238.36
2018-07-23T13:04:37.730Z,101235.57
2018-07-23T13:07:05.803Z,101236.45
2018-07-23T13:09:33.914Z,101240.81
2018-07-23T13:12:02.045Z,101235.41
2018-07-23T13:14:30.155Z,101242.09
2018-07-23T13:16:58.279Z,101243.09
2018-07-23T13:19:26.362Z,101240.53
2018-07-23T13:21:54.492Z,101225.81
2018-07-23T13:24:22.605Z,101234.39
2018-07-23T13:26:50.688Z,101234.72
2018-07-23T13:29:18.800Z,101229.44
2018-07-23T13:31:46.897Z,101237.37
2018-07-23T13:34:15.048Z,101232.66
2018-07-23T13:36:43.119Z,101234.03
2018-07-23T13:39:13.001Z,101238.34
2018-07-23T13:41:41.440Z,101232.26
2018-07-23T13:44:10.856Z,101228.02
2018-07-23T13:46:39.322Z,101229.00
2018-07-23T13:49:07.424Z,101234.57
2018-07-23T13:51:35.876Z,101227.42
2018-07-23T13:54:03.970Z,101230.78
2018-07-23T13:56:32.063Z,101230.24
2018-07-23T13:59:00.186Z,101225.48
2018-07-23T14:01:28.233Z,101228.02
2018-07-23T14:03:56.293Z,101229.39
2018-07-23T14:06:24.402Z,101232.55
2018-07-23T14:08:52.469Z,101228.38
2018-07-23T14:11:20.743Z,101228.54
2018-07-23T14:13:48.839Z,101227.28
2018-07-23T14:16:16.984Z,101228.70
2018-07-23T14:18:45.118Z,101231.89
2018-07-23T14:21:13.308Z,101230.08
2018-07-23T14:23:41.409Z,101240.44
2018-07-23T14:26:09.473Z,101230.48
2018-07-23T14:28:37.566Z,101227.50
2018-07-23T14:31:05.756Z,101232.59
2018-07-23T14:33:33.867Z,101217.03
2018-07-23T14:36:01.998Z,101222.95
2018-07-23T14:38:30.114Z,101232.38
2018-07-23T14:40:58.211Z,101225.02
2018-07-23T14:43:26.294Z,101219.30
2018-07-23T14:45:54.413Z,101225.72
2018-07-23T14:48:22.514Z,101224.99
2018-07-23T14:50:50.623Z,101222.50
2018-07-23T14:53:18.708Z,101222.84
2018-07-23T14:55:46.866Z,101215.42
2018-07-23T14:58:15.033Z,101216.75
2018-07-23T15:00:43.132Z,101213.99
2018-07-23T15:03:11.951Z,101207.67
2018-07-23T15:05:40.156Z,101206.16
2018-07-23T15:08:08.229Z,101211.30
2018-07-23T15:10:36.332Z,101198.61
2018-07-23T15:13:04.461Z,101211.07
2018-07-23T15:15:32.546Z,101213.43
2018-07-23T15:18:00.634Z,101207.86
2018-07-23T15:20:28.753Z,101204.61
2018-07-23T15:22:56.840Z,101210.39
2018-07-23T15:25:24.920Z,101212.09
2018-07-23T15:27:53.074Z,101215.00
2018-07-23T15:30:21.172Z,101210.56
2018-07-23T15:32:49.254Z,101206.27
2018-07-23T15:35:17.414Z,101206.13
2018-07-23T15:37:45.498Z,101212.36
2018-07-23T15:40:13.575Z,101207.35
2018-07-23T15:42:42.616Z,101199.14
2018-07-23T15:45:10.780Z,101202.84
2018-07-23T15:47:38.790Z,101199.61
2018-07-23T15:50:06.895Z,101201.59
2018-07-23T15:52:34.956Z,101197.08
2018-07-23T15:55:03.030Z,101195.28
2018-07-23T15:57:31.170Z,101195.49
2018-07-23T15:59:59.271Z,101198.92
2018-07-23T16:02:27.354Z,101196.42
2018-07-23T16:04:55.436Z,101190.92
2018-07-23T16:07:23.542Z,101191.31
2018-07-23T16:09:51.619Z,101190.59
2018-07-23T16:12:19.799Z,101183.77
2018-07-23T16:14:47.917Z,101194.45
2018-07-23T16:17:22.435Z,101192.09
2018-07-23T16:19:50.550Z,101184.39
2018-07-23T16:22:18.683Z,101187.88
2018-07-23T16:24:46.769Z,101188.45
2018-07-23T16:27:14.907Z,101184.61
2018-07-23T16:29:43.019Z,101187.23
2018-07-23T16:32:11.132Z,101188.28
2018-07-23T16:34:39.223Z,101175.61
2018-07-23T16:37:07.371Z,101182.48
2018-07-23T16:39:35.445Z,101177.13
2018-07-23T16:42:03.517Z,101176.58
2018-07-23T16:44:31.612Z,101176.45
2018-07-23T16:46:59.818Z,101175.61
2018-07-23T16:49:27.877Z,101180.16
2018-07-23T16:51:56.070Z,101180.99
2018-07-23T16:54:24.139Z,101181.31
2018-07-23T16:56:52.234Z,101182.66
2018-07-23T16:59:20.797Z,101177.82
2018-07-23T17:01:48.899Z,101173.79
2018-07-23T17:04:17.057Z,101171.45
2018-07-23T17:06:45.227Z,101172.94
2018-07-23T17:09:13.482Z,101178.14
2018-07-23T17:11:41.639Z,101176.15
2018-07-23T17:14:09.795Z,101173.85
2018-07-23T17:16:37.917Z,101179.06
2018-07-23T17:19:06.316Z,101174.03
2018-07-23T17:21:34.447Z,101180.77
2018-07-23T17:24:02.544Z,101173.41
2018-07-23T17:26:30.651Z,101178.44
2018-07-23T17:28:58.757Z,101177.09
2018-07-23T17:31:26.849Z,101179.74
2018-07-23T17:33:54.985Z,101181.45
2018-07-23T17:36:23.086Z,101180.61
2018-07-23T17:38:51.467Z,101178.77
2018-07-23T17:41:19.571Z,101175.09
2018-07-23T17:43:47.684Z,101184.62
2018-07-23T17:46:15.804Z,101180.78
2018-07-23T17:48:43.895Z,101180.94
2018-07-23T17:51:11.988Z,101183.96
2018-07-23T17:53:40.095Z,101181.28
2018-07-23T17:56:08.199Z,101175.59
2018-07-23T17:58:36.292Z,101175.59
2018-07-23T18:01:04.376Z,101171.94
2018-07-23T18:03:32.465Z,101176.45
2018-07-23T18:06:00.594Z,101176.80
2018-07-23T18:08:28.758Z,101177.29
2018-07-23T18:10:56.944Z,101176.45
2018-07-23T18:13:25.056Z,101185.17
2018-07-23T18:15:53.131Z,101187.01
2018-07-23T18:18:21.208Z,101181.98
2018-07-23T18:20:49.307Z,101182.32
2018-07-23T18:23:17.472Z,101183.16
2018-07-23T18:25:46.067Z,101183.33
2018-07-23T18:28:14.148Z,101188.82
2018-07-23T18:30:42.279Z,101187.65
2018-07-23T18:33:11.176Z,101196.99
2018-07-23T18:35:39.252Z,101187.11
2018-07-23T18:38:07.435Z,101196.31
2018-07-23T18:40:35.479Z,101188.94
2018-07-23T18:43:03.562Z,101198.98
2018-07-23T18:45:31.739Z,101199.46
2018-07-23T18:48:00.270Z,101205.12
2018-07-23T18:50:28.364Z,101203.28
2018-07-23T18:52:56.545Z,101208.61
2018-07-23T18:55:24.718Z,101217.92
2018-07-23T18:57:52.870Z,101218.70
2018-07-23T19:00:20.967Z,101223.37
2018-07-23T19:02:49.141Z,101219.41
2018-07-23T19:05:17.239Z,101217.38
2018-07-23T19:07:45.338Z,101223.84
2018-07-23T19:10:13.430Z,101221.62
2018-07-23T19:12:41.496Z,101229.42
2018-07-23T19:15:09.616Z,101226.36
2018-07-23T19:17:37.717Z,101222.63
2018-07-23T19:20:05.833Z,101228.44
2018-07-23T19:22:33.900Z,101237.22
2018-07-23T19:25:02.924Z,101236.11
2018-07-23T19:27:32.066Z,101233.53
2018-07-23T19:30:01.004Z,101240.70
2018-07-23T19:32:29.806Z,101236.16
2018-07-23T19:34:57.934Z,101238.59
2018-07-23T19:37:26.024Z,101236.67
2018-07-23T19:39:54.115Z,101235.29
2018-07-23T19:42:22.372Z,101237.57
2018-07-23T19:44:50.443Z,101244.33
2018-07-23T19:47:18.524Z,101246.06
2018-07-23T19:49:46.656Z,101250.98
2018-07-23T19:52:14.758Z,101253.11
2018-07-23T19:54:43.024Z,101252.97
2018-07-23T19:57:11.102Z,101257.59
2018-07-23T19:59:39.259Z,101253.98
2018-07-23T20:02:07.349Z,101254.89
2018-07-23T20:04:35.463Z,101257.23
2018-07-23T20:07:03.551Z,101257.15
2018-07-23T20:09:31.708Z,101253.18
2018-07-23T20:11:59.841Z,101256.91
2018-07-23T20:14:27.952Z,101255.20
2018-07-23T20:16:56.076Z,101253.25
2018-07-23T20:19:24.267Z,101258.37
2018-07-23T20:21:52.385Z,101259.74
2018-07-23T20:24:20.487Z,101259.91
2018-07-23T20:26:48.564Z,101259.58
2018-07-23T20:29:16.636Z,101255.13
2018-07-23T20:31:44.692Z,101255.20
2018-07-23T20:34:12.813Z,101258.56
2018-07-23T20:36:40.904Z,101251.83
2018-07-23T20:39:09.008Z,101261.24
2018-07-23T20:41:37.128Z,101258.64
2018-07-23T20:44:05.205Z,101254.02
2018-07-23T20:46:33.367Z,101254.25
2018-07-23T20:49:01.455Z,101261.59
2018-07-23T20:51:29.573Z,101256.16
2018-07-23T20:53:57.643Z,101257.63
2018-07-23T20:56:25.752Z,101259.18
2018-07-23T20:58:53.887Z,101256.22
2018-07-23T21:01:21.987Z,101251.27
2018-07-23T21:03:50.119Z,101253.89
2018-07-23T21:06:18.167Z,101255.44
2018-07-23T21:08:46.295Z,101254.50
2018-07-23T21:11:14.378Z,101254.42
2018-07-23T21:13:42.524Z,101253.94
2018-07-23T21:16:10.623Z,101263.23
2018-07-23T21:18:38.733Z,101264.91
2018-07-23T21:21:06.950Z,101266.66
2018-07-23T21:23:35.042Z,101259.08
2018-07-23T21:26:03.156Z,101266.70
2018-07-23T21:28:31.263Z,101270.36
2018-07-23T21:30:59.414Z,101265.96
2018-07-23T21:33:27.512Z,101271.47
2018-07-23T21:35:55.603Z,101269.75
2018-07-23T21:38:23.752Z,101269.78
2018-07-23T21:40:51.831Z,101271.43
2018-07-23T21:43:19.948Z,101271.56
2018-07-23T21:45:48.075Z,101278.34
2018-07-23T21:48:16.199Z,101275.72
2018-07-23T21:50:44.290Z,101278.53
2018-07-23T21:53:12.639Z,101276.49
2018-07-23T21:55:40.765Z,101272.89
2018-07-23T21:58:08.858Z,101280.02
2018-07-23T22:00:37.926Z,101275.31
2018-07-23T22:03:05.967Z,101280.03
2018-07-23T22:05:34.150Z,101284.27
2018-07-23T22:08:02.239Z,101281.53
2018-07-23T22:10:30.363Z,101284.08
2018-07-23T22:12:58.529Z,101280.36
2018-07-23T22:15:26.638Z,101282.41
2018-07-23T22:17:54.780Z,101284.93
2018-07-23T22:20:22.933Z,101290.36
2018-07-23T22:22:51.100Z,101279.16
2018-07-23T22:25:19.213Z,101283.86
2018-07-23T22:27:47.317Z,101284.58
2018-07-23T22:30:15.494Z,101289.17
2018-07-23T22:32:43.546Z,101288.95
2018-07-23T22:35:11.677Z,101280.13
2018-07-23T22:37:39.766Z,101283.53
2018-07-23T22:40:07.835Z,101284.14
2018-07-23T22:42:36.462Z,101283.78
2018-07-23T22:45:05.362Z,101278.23
2018-07-23T22:47:33.442Z,101281.74
2018-07-23T22:50:02.133Z,101281.74
2018-07-23T22:52:30.228Z,101280.81
2018-07-23T22:54:58.318Z,101282.02
2018-07-23T22:57:26.399Z,101280.81
2018-07-23T22:59:54.496Z,101278.85
2018-07-23T23:02:22.612Z,101277.20
2018-07-23T23:04:50.743Z,101279.48
2018-07-23T23:07:18.848Z,101283.46
2018-07-23T23:09:46.950Z,101278.41
2018-07-23T23:12:15.095Z,101273.10
2018-07-23T23:14:43.222Z,101286.02
2018-07-23T23:17:11.335Z,101285.53
2018-07-23T23:19:39.466Z,101289.48
2018-07-23T23:22:07.548Z,101287.58
2018-07-23T23:24:35.654Z,101289.75
2018-07-23T23:27:03.776Z,101283.69
2018-07-23T23:29:31.874Z,101291.03
2018-07-23T23:31:59.970Z,101284.77
2018-07-23T23:34:28.104Z,101281.64
2018-07-23T23:36:56.228Z,101282.77
2018-07-23T23:39:24.340Z,101284.57
2018-07-23T23:41:52.511Z,101279.88
2018-07-23T23:44:20.645Z,101282.97
2018-07-23T23:46:48.823Z,101281.66
2018-07-23T23:49:16.952Z,101285.39
2018-07-23T23:51:45.101Z,101275.50
2018-07-23T23:54:13.275Z,101282.13
2018-07-23T23:56:41.352Z,101279.95
2018-07-23T23:59:09.502Z,101272.38
